createdAt,value
2023-03-25T00:00:39.724Z,99774.81
2023-03-25T00:03:27.590Z,99779.41
2023-03-25T00:06:15.082Z,99773.81
2023-03-25T00:09:02.295Z,99773.31
2023-03-25T00:11:52.319Z,99776.91
2023-03-25T00:14:39.604Z,99776.75
2023-03-25T00:17:29.158Z,99778.09
2023-03-25T00:20:16.247Z,99785.03
2023-03-25T00:23:02.802Z,99778.91
2023-03-25T00:25:52.929Z,99777.72
2023-03-25T00:28:41.469Z,99784.19
2023-03-25T00:31:28.348Z,99786.06
2023-03-25T00:34:15.135Z,99779.59
2023-03-25T00:37:02.451Z,99774.44
2023-03-25T00:39:49.428Z,99778.09
2023-03-25T00:42:35.913Z,99772.28
2023-03-25T00:45:24.996Z,99778.25
2023-03-25T00:48:11.640Z,99782.41
2023-03-25T00:50:58.243Z,99777.09
2023-03-25T00:53:45.166Z,99780.19
2023-03-25T00:56:32.575Z,99784.84
2023-03-25T00:59:19.038Z,99780.63
2023-03-25T01:02:07.684Z,99782.94
2023-03-25T01:04:55.184Z,99779.28
2023-03-25T01:07:42.831Z,99777.56
2023-03-25T01:10:29.270Z,99784.44
2023-03-25T01:13:16.734Z,99784.94
2023-03-25T01:16:08.133Z,99785.94
2023-03-25T01:18:57.085Z,99780.94
2023-03-25T01:21:45.444Z,99775.50
2023-03-25T01:24:32.574Z,99785.94
2023-03-25T01:27:19.215Z,99782.88
2023-03-25T01:30:07.241Z,99786.22
2023-03-25T01:32:53.837Z,99778.44
2023-03-25T01:35:42.152Z,99782.94
2023-03-25T01:38:30.502Z,99783.66
2023-03-25T01:41:17.324Z,99761.47
2023-03-25T01:44:09.133Z,99763.75
2023-03-25T01:46:58.666Z,99759.75
2023-03-25T01:49:47.542Z,99759.63
2023-03-25T01:52:35.525Z,99760.47
2023-03-25T01:55:24.220Z,99756.69
2023-03-25T01:58:15.350Z,99756.75
2023-03-25T02:01:03.832Z,99744.59
2023-03-25T02:03:53.145Z,99743.50
2023-03-25T02:06:44.195Z,99684.91
2023-03-25T02:09:32.644Z,99736.66
2023-03-25T02:12:19.490Z,99732.00
2023-03-25T02:15:08.830Z,99729.28
2023-03-25T02:18:17.616Z,99725.78
2023-03-25T02:21:46.469Z,99721.34
2023-03-25T02:24:58.063Z,99726.84
2023-03-25T02:27:57.899Z,99730.28
2023-03-25T02:31:11.624Z,99724.97
2023-03-25T02:34:24.948Z,99721.97
2023-03-25T02:37:47.047Z,99704.59
2023-03-25T02:40:47.633Z,99709.91
2023-03-25T02:43:41.519Z,99713.03
2023-03-25T02:46:32.711Z,99709.44
2023-03-25T02:49:25.901Z,99686.84
2023-03-25T02:52:18.037Z,99705.41
2023-03-25T02:55:10.541Z,99695.06
2023-03-25T02:58:00.371Z,99696.69
2023-03-25T03:00:47.656Z,99689.94
2023-03-25T03:03:34.678Z,99687.31
2023-03-25T03:06:23.453Z,99676.19
2023-03-25T03:09:25.656Z,99679.97
2023-03-25T03:12:26.223Z,99676.84
2023-03-25T03:15:25.539Z,99682.31
2023-03-25T03:18:19.511Z,99676.84
2023-03-25T03:21:13.210Z,99673.09
2023-03-25T03:24:06.903Z,99669.06
2023-03-25T03:26:58.766Z,99678.41
2023-03-25T03:29:47.518Z,99677.13
2023-03-25T03:32:43.521Z,99673.72
2023-03-25T03:35:34.932Z,99670.56
2023-03-25T03:38:26.095Z,99677.03
2023-03-25T03:41:17.444Z,99673.91
2023-03-25T03:44:08.206Z,99683.50
2023-03-25T03:46:59.230Z,99685.56
2023-03-25T03:49:52.943Z,99685.78
2023-03-25T03:52:45.249Z,99692.19
2023-03-25T03:55:37.904Z,99691.34
2023-03-25T03:58:30.789Z,99682.19
2023-03-25T04:01:28.152Z,99688.19
2023-03-25T04:04:17.370Z,99694.31
2023-03-25T04:07:10.624Z,99684.56
2023-03-25T04:10:04.605Z,99691.34
2023-03-25T04:12:54.244Z,99685.41
2023-03-25T04:15:42.095Z,99688.69
2023-03-25T04:18:28.719Z,99687.91
2023-03-25T04:21:17.746Z,99693.75
2023-03-25T04:24:08.312Z,99685.53
2023-03-25T04:26:57.725Z,99676.84
2023-03-25T04:29:45.108Z,99669.66
2023-03-25T04:32:32.883Z,99682.00
2023-03-25T04:35:22.960Z,99678.16
2023-03-25T04:38:10.170Z,99685.56
2023-03-25T04:41:00.489Z,99678.63
2023-03-25T04:43:47.042Z,99681.81
2023-03-25T04:46:34.566Z,99689.00
2023-03-25T04:49:23.107Z,99686.44
2023-03-25T04:52:10.373Z,99670.94
2023-03-25T04:54:57.359Z,99677.09
2023-03-25T04:57:46.872Z,99675.50
2023-03-25T05:00:33.943Z,99677.63
2023-03-25T05:03:24.146Z,99682.00
2023-03-25T05:06:11.484Z,99684.72
2023-03-25T05:08:58.269Z,99683.94
2023-03-25T05:11:45.176Z,99672.09
2023-03-25T05:14:33.078Z,99682.84
2023-03-25T05:17:19.689Z,99690.41
2023-03-25T05:20:08.924Z,99680.66
2023-03-25T05:22:57.641Z,99680.88
2023-03-25T05:25:44.684Z,99681.28
2023-03-25T05:28:31.422Z,99676.53
2023-03-25T05:31:19.757Z,99668.44
2023-03-25T05:34:06.856Z,99673.47
2023-03-25T05:36:54.300Z,99674.81
2023-03-25T05:39:40.996Z,99670.06
2023-03-25T05:42:27.861Z,99678.56
2023-03-25T05:45:16.003Z,99677.63
2023-03-25T05:48:04.261Z,99672.47
2023-03-25T05:50:51.004Z,99665.63
2023-03-25T05:53:37.709Z,99668.50
2023-03-25T05:56:24.456Z,99670.13
2023-03-25T05:59:11.458Z,99666.13
2023-03-25T06:01:57.962Z,99678.91
2023-03-25T06:04:47.404Z,99683.91
2023-03-25T06:07:33.821Z,99684.69
2023-03-25T06:10:20.971Z,99692.88
2023-03-25T06:13:07.585Z,99690.72
2023-03-25T06:15:56.394Z,99695.84
2023-03-25T06:18:43.086Z,99695.59
2023-03-25T06:21:33.971Z,99639.97
2023-03-25T06:24:20.498Z,99707.41
2023-03-25T06:27:10.435Z,99698.50
2023-03-25T06:29:57.331Z,99698.59
2023-03-25T06:32:44.181Z,99701.41
2023-03-25T06:35:30.858Z,99702.09
2023-03-25T06:38:18.891Z,99697.13
2023-03-25T06:41:25.400Z,99705.94
2023-03-25T06:44:36.332Z,99711.94
2023-03-25T06:47:43.397Z,99702.38
2023-03-25T06:50:30.459Z,99715.53
2023-03-25T06:53:18.433Z,99717.44
2023-03-25T06:56:05.094Z,99716.06
2023-03-25T06:58:51.516Z,99709.34
2023-03-25T07:01:38.241Z,99717.41
2023-03-25T07:04:25.068Z,99723.63
2023-03-25T07:07:11.865Z,99718.47
2023-03-25T07:10:00.463Z,99721.63
2023-03-25T07:12:47.615Z,99714.28
2023-03-25T07:15:33.955Z,99713.25
2023-03-25T07:18:21.151Z,99710.59
2023-03-25T07:21:08.425Z,99715.28
2023-03-25T07:23:54.788Z,99718.13
2023-03-25T07:26:42.885Z,99719.66
2023-03-25T07:29:31.365Z,99710.31
2023-03-25T07:32:18.181Z,99712.34
2023-03-25T07:35:05.201Z,99706.53
2023-03-25T07:37:51.803Z,99708.78
2023-03-25T07:40:39.046Z,99707.91
2023-03-25T07:43:26.779Z,99710.91
2023-03-25T07:46:15.899Z,99708.38
2023-03-25T07:49:02.693Z,99708.75
2023-03-25T07:51:49.414Z,99708.22
2023-03-25T07:54:36.114Z,99713.56
2023-03-25T07:57:22.923Z,99715.38
2023-03-25T08:00:12.760Z,99714.78
2023-03-25T08:02:59.297Z,99720.38
2023-03-25T08:05:47.966Z,99715.81
2023-03-25T08:08:34.793Z,99723.13
2023-03-25T08:11:22.173Z,99721.78
2023-03-25T08:14:08.498Z,99720.56
2023-03-25T08:16:56.678Z,99716.41
2023-03-25T08:19:43.308Z,99718.53
2023-03-25T08:22:30.066Z,99714.25
2023-03-25T08:25:16.889Z,99730.19
2023-03-25T08:28:03.772Z,99700.03
2023-03-25T08:30:55.404Z,99718.66
2023-03-25T08:33:43.580Z,99705.16
2023-03-25T08:36:30.273Z,99711.53
2023-03-25T08:39:17.474Z,99722.66
2023-03-25T08:42:04.196Z,99718.19
2023-03-25T08:44:51.018Z,99718.16
2023-03-25T08:47:37.919Z,99714.75
2023-03-25T08:50:26.299Z,99720.50
2023-03-25T08:53:12.923Z,99715.63
2023-03-25T08:56:00.338Z,99720.47
2023-03-25T08:58:47.135Z,99730.75
2023-03-25T09:01:35.203Z,99725.44
2023-03-25T09:04:21.593Z,99719.81
2023-03-25T09:07:12.670Z,99736.06
2023-03-25T09:09:59.529Z,99727.44
2023-03-25T09:12:46.256Z,99728.19
2023-03-25T09:15:33.443Z,99721.53
2023-03-25T09:18:20.229Z,99717.09
2023-03-25T09:21:07.288Z,99727.72
2023-03-25T09:23:55.192Z,99722.47
2023-03-25T09:26:41.987Z,99724.88
2023-03-25T09:29:29.690Z,99720.81
2023-03-25T09:32:18.091Z,99727.19
2023-03-25T09:35:04.785Z,99726.34
2023-03-25T09:37:51.854Z,99732.66
2023-03-25T09:40:42.206Z,99734.34
2023-03-25T09:43:37.690Z,99736.94
2023-03-25T09:46:25.078Z,99734.84
2023-03-25T09:49:17.019Z,99738.75
2023-03-25T09:52:04.176Z,99726.28
2023-03-25T09:54:56.501Z,99722.47
2023-03-25T09:57:49.236Z,99709.91
2023-03-25T10:00:35.982Z,99715.94
2023-03-25T10:03:28.643Z,99722.66
2023-03-25T10:06:19.798Z,99721.50
2023-03-25T10:09:19.359Z,99723.25
2023-03-25T10:12:18.354Z,99718.78
2023-03-25T10:15:18.171Z,99722.13
2023-03-25T10:18:25.177Z,99714.78
2023-03-25T10:21:17.698Z,99702.97
2023-03-25T10:24:14.248Z,99711.69
2023-03-25T10:27:03.984Z,99724.47
2023-03-25T10:29:56.235Z,99707.75
2023-03-25T10:32:48.341Z,99673.53
2023-03-25T10:35:40.532Z,99716.75
2023-03-25T10:38:30.237Z,99721.47
2023-03-25T10:41:24.430Z,99714.53
2023-03-25T10:44:11.547Z,99706.50
2023-03-25T10:47:04.399Z,99715.00
2023-03-25T10:49:55.317Z,99708.25
2023-03-25T10:52:42.570Z,99711.91
2023-03-25T10:55:34.892Z,99699.59
2023-03-25T10:58:21.892Z,99704.28
2023-03-25T11:01:13.291Z,99700.38
2023-03-25T11:04:01.815Z,99690.53
2023-03-25T11:06:55.479Z,99694.34
2023-03-25T11:09:42.412Z,99691.22
2023-03-25T11:12:42.193Z,99685.13
2023-03-25T11:15:32.894Z,99693.66
2023-03-25T11:18:23.330Z,99684.78
2023-03-25T11:21:13.516Z,99676.47
2023-03-25T11:24:02.193Z,99663.97
2023-03-25T11:26:52.410Z,99683.13
2023-03-25T11:29:39.437Z,99673.09
2023-03-25T11:32:34.148Z,99683.72
2023-03-25T11:35:27.063Z,99677.84
2023-03-25T11:38:16.813Z,99673.66
2023-03-25T11:41:05.152Z,99683.28
2023-03-25T11:43:51.811Z,99676.66
2023-03-25T11:46:44.258Z,99671.41
2023-03-25T11:49:37.288Z,99673.66
2023-03-25T11:52:27.473Z,99670.78
2023-03-25T11:55:18.918Z,99666.72
2023-03-25T11:58:08.863Z,99676.47
2023-03-25T12:01:03.462Z,99661.72
2023-03-25T12:03:50.015Z,99666.94
2023-03-25T12:06:36.720Z,99675.59
2023-03-25T12:09:23.650Z,99668.63
2023-03-25T12:12:36.953Z,99653.97
2023-03-25T12:15:39.011Z,99654.56
2023-03-25T12:18:59.609Z,99659.78
2023-03-25T12:22:08.448Z,99657.13
2023-03-25T12:25:09.663Z,99643.25
2023-03-25T12:28:41.212Z,99659.16
2023-03-25T12:31:40.928Z,99645.59
2023-03-25T12:34:39.613Z,99647.25
2023-03-25T12:37:37.710Z,99661.06
2023-03-25T12:40:37.276Z,99652.00
2023-03-25T12:43:33.502Z,99643.31
2023-03-25T12:46:30.402Z,99635.97
2023-03-25T12:49:34.596Z,99628.16
2023-03-25T12:52:28.844Z,99630.63
2023-03-25T12:55:32.636Z,99618.69
2023-03-25T12:58:40.064Z,99622.25
2023-03-25T13:01:36.965Z,99628.41
2023-03-25T13:04:44.394Z,99615.84
2023-03-25T13:07:36.603Z,99628.84
2023-03-25T13:10:26.421Z,99630.22
2023-03-25T13:13:18.016Z,99646.63
2023-03-25T13:16:10.715Z,99675.22
2023-03-25T13:19:03.347Z,99654.16
2023-03-25T13:21:56.729Z,99654.44
2023-03-25T13:24:49.711Z,99648.84
2023-03-25T13:27:42.564Z,99638.31
2023-03-25T13:30:34.973Z,99630.13
2023-03-25T13:33:26.188Z,99638.06
2023-03-25T13:36:20.560Z,99638.44
2023-03-25T13:39:17.320Z,99612.91
2023-03-25T13:42:14.459Z,99623.44
2023-03-25T13:45:03.618Z,99629.41
2023-03-25T13:47:55.336Z,99622.78
2023-03-25T13:50:42.938Z,99625.34
2023-03-25T13:53:34.611Z,99623.06
2023-03-25T13:57:06.602Z,99622.13
2023-03-25T14:00:23.013Z,99624.25
2023-03-25T14:03:53.217Z,99625.72
2023-03-25T14:06:59.907Z,99617.03
2023-03-25T14:10:26.295Z,99624.72
2023-03-25T14:13:18.772Z,99624.84
2023-03-25T14:16:09.803Z,99625.03
2023-03-25T14:19:02.477Z,99609.56
2023-03-25T14:21:51.208Z,99617.00
2023-03-25T14:24:38.172Z,99578.88
2023-03-25T14:27:29.558Z,99603.09
2023-03-25T14:30:22.336Z,99601.34
2023-03-25T14:33:10.956Z,99596.94
2023-03-25T14:35:57.763Z,99583.13
2023-03-25T14:38:55.129Z,99589.69
2023-03-25T14:41:59.515Z,99601.75
2023-03-25T14:44:49.937Z,99601.63
2023-03-25T14:47:38.238Z,99600.66
2023-03-25T14:50:34.805Z,99611.22
2023-03-25T14:53:21.948Z,99602.91
2023-03-25T14:56:16.682Z,99612.44
2023-03-25T14:59:10.550Z,99606.59
2023-03-25T15:02:04.335Z,99623.25
2023-03-25T15:04:58.214Z,99635.66
2023-03-25T15:07:48.267Z,99639.69
2023-03-25T15:10:38.055Z,99642.78
2023-03-25T15:13:28.423Z,99640.28
2023-03-25T15:16:19.979Z,99627.84
2023-03-25T15:19:12.167Z,99624.06
2023-03-25T15:22:20.664Z,99634.13
2023-03-25T15:25:16.230Z,99620.63
2023-03-25T15:28:20.267Z,99627.47
2023-03-25T15:31:24.740Z,99615.97
2023-03-25T15:34:24.895Z,99612.22
2023-03-25T15:37:45.752Z,99620.53
2023-03-25T15:40:45.464Z,99610.00
2023-03-25T15:44:06.920Z,99602.38
2023-03-25T15:47:15.810Z,99593.53
2023-03-25T15:50:36.333Z,99593.66
2023-03-25T15:53:49.305Z,99595.06
2023-03-25T15:56:41.930Z,99592.09
2023-03-25T15:59:35.012Z,99600.19
2023-03-25T16:02:29.771Z,99591.44
2023-03-25T16:05:18.205Z,99603.63
2023-03-25T16:08:10.274Z,99600.94
2023-03-25T16:10:58.205Z,99594.41
2023-03-25T16:13:44.781Z,99598.59
2023-03-25T16:16:36.083Z,99598.03
2023-03-25T16:19:25.766Z,99587.56
2023-03-25T16:22:18.953Z,99600.00
2023-03-25T16:25:14.223Z,99599.72
2023-03-25T16:28:04.411Z,99595.84
2023-03-25T16:30:53.976Z,99594.97
2023-03-25T16:33:41.256Z,99602.00
2023-03-25T16:36:28.329Z,99607.63
2023-03-25T16:39:16.037Z,99612.66
2023-03-25T16:42:06.403Z,99619.88
2023-03-25T16:44:55.202Z,99632.41
2023-03-25T16:47:42.788Z,99642.34
2023-03-25T16:50:31.052Z,99625.00
2023-03-25T16:53:19.349Z,99618.09
2023-03-25T16:56:30.373Z,99628.78
2023-03-25T16:59:21.485Z,99626.13
2023-03-25T17:02:26.282Z,99625.44
2023-03-25T17:05:18.960Z,99640.53
2023-03-25T17:08:10.515Z,99648.59
2023-03-25T17:10:59.530Z,99649.34
2023-03-25T17:13:50.909Z,99649.44
2023-03-25T17:16:50.805Z,99646.69
2023-03-25T17:19:47.668Z,99644.66
2023-03-25T17:22:35.887Z,99647.22
2023-03-25T17:25:27.889Z,99644.31
2023-03-25T17:28:29.624Z,99645.69
2023-03-25T17:31:28.154Z,99639.31
2023-03-25T17:34:19.258Z,99639.06
2023-03-25T17:37:08.485Z,99675.03
2023-03-25T17:39:55.136Z,99678.56
2023-03-25T17:42:42.369Z,99696.59
2023-03-25T17:45:29.236Z,99698.47
2023-03-25T17:48:17.286Z,99709.25
2023-03-25T17:51:04.126Z,99703.63
2023-03-25T17:53:52.572Z,99703.41
2023-03-25T17:56:45.082Z,99699.50
2023-03-25T17:59:32.349Z,99700.97
2023-03-25T18:02:19.147Z,99693.38
2023-03-25T18:05:07.283Z,99691.56
2023-03-25T18:07:53.689Z,99696.81
2023-03-25T18:10:42.721Z,99664.78
2023-03-25T18:13:29.378Z,99697.81
2023-03-25T18:16:16.743Z,99707.50
2023-03-25T18:19:03.645Z,99698.75
2023-03-25T18:21:51.136Z,99695.00
2023-03-25T18:24:39.299Z,99692.34
2023-03-25T18:27:40.687Z,99693.56
2023-03-25T18:30:34.733Z,99691.84
2023-03-25T18:33:22.149Z,99685.94
2023-03-25T18:36:10.426Z,99688.47
2023-03-25T18:38:57.201Z,99686.63
2023-03-25T18:41:44.323Z,99684.44
2023-03-25T18:44:32.519Z,99682.88
2023-03-25T18:47:19.668Z,99684.13
2023-03-25T18:50:16.880Z,99671.69
2023-03-25T18:53:05.026Z,99664.31
2023-03-25T18:55:52.485Z,99678.31
2023-03-25T18:58:39.263Z,99672.72
2023-03-25T19:01:27.675Z,99672.44
2023-03-25T19:04:14.487Z,99671.97
2023-03-25T19:07:01.298Z,99670.66
2023-03-25T19:09:48.080Z,99667.06
2023-03-25T19:12:34.756Z,99668.44
2023-03-25T19:15:25.067Z,99667.75
2023-03-25T19:18:18.132Z,99659.53
2023-03-25T19:21:07.024Z,99622.44
2023-03-25T19:23:53.646Z,99656.81
2023-03-25T19:26:40.560Z,99649.94
2023-03-25T19:29:27.827Z,99649.44
2023-03-25T19:32:16.081Z,99660.31
2023-03-25T19:35:05.507Z,99665.63
2023-03-25T19:37:52.360Z,99660.56
2023-03-25T19:40:39.368Z,99665.06
2023-03-25T19:43:26.332Z,99655.63
2023-03-25T19:46:13.105Z,99656.78
2023-03-25T19:49:00.050Z,99640.06
2023-03-25T19:51:48.262Z,99637.81
2023-03-25T19:54:35.076Z,99648.19
2023-03-25T19:57:21.670Z,99636.19
2023-03-25T20:00:12.684Z,99636.59
2023-03-25T20:03:01.842Z,99613.94
2023-03-25T20:05:49.070Z,99631.72
2023-03-25T20:08:37.151Z,99633.69
2023-03-25T20:11:24.082Z,99622.72
2023-03-25T20:14:10.614Z,99618.44
2023-03-25T20:16:57.632Z,99610.56
2023-03-25T20:19:44.457Z,99618.84
2023-03-25T20:22:32.708Z,99609.19
2023-03-25T20:25:21.426Z,99611.97
2023-03-25T20:28:08.260Z,99608.16
2023-03-25T20:30:55.440Z,99608.16
2023-03-25T20:33:41.937Z,99605.53
2023-03-25T20:36:28.701Z,99602.00
2023-03-25T20:39:15.638Z,99603.34
2023-03-25T20:42:04.758Z,99611.59
2023-03-25T20:44:51.407Z,99612.59
2023-03-25T20:47:39.858Z,99612.06
2023-03-25T20:50:27.323Z,99616.88
2023-03-25T20:53:13.803Z,99608.31
2023-03-25T20:56:02.021Z,99614.72
2023-03-25T20:58:50.551Z,99610.50
2023-03-25T21:01:37.446Z,99610.50
2023-03-25T21:04:25.177Z,99614.25
2023-03-25T21:07:11.639Z,99600.91
2023-03-25T21:09:59.183Z,99575.84
2023-03-25T21:12:45.587Z,99601.09
2023-03-25T21:15:33.759Z,99595.38
2023-03-25T21:18:23.088Z,99599.59
2023-03-25T21:21:10.032Z,99602.63
2023-03-25T21:23:57.022Z,99590.41
2023-03-25T21:26:43.808Z,99598.97
2023-03-25T21:29:30.936Z,99577.88
2023-03-25T21:32:18.885Z,99599.66
2023-03-25T21:35:06.163Z,99597.72
2023-03-25T21:37:52.989Z,99596.63
2023-03-25T21:40:41.650Z,99600.22
2023-03-25T21:43:28.728Z,99602.25
2023-03-25T21:46:19.368Z,99600.69
2023-03-25T21:49:08.878Z,99600.06
2023-03-25T21:51:57.049Z,99593.69
2023-03-25T21:54:44.375Z,99589.84
2023-03-25T21:57:31.935Z,99588.69
2023-03-25T22:00:19.804Z,99597.34
2023-03-25T22:03:06.558Z,99586.03
2023-03-25T22:05:54.810Z,99597.25
2023-03-25T22:08:42.004Z,99597.34
2023-03-25T22:11:30.269Z,99596.16
2023-03-25T22:14:17.130Z,99591.97
2023-03-25T22:17:03.892Z,99599.06
2023-03-25T22:19:52.633Z,99601.00
2023-03-25T22:22:43.582Z,99595.94
2023-03-25T22:25:30.151Z,99596.88
2023-03-25T22:28:16.819Z,99586.13
2023-03-25T22:31:09.787Z,99590.41
2023-03-25T22:33:58.566Z,99594.44
2023-03-25T22:36:50.474Z,99593.22
2023-03-25T22:39:39.325Z,99593.59
2023-03-25T22:42:26.881Z,99594.00
2023-03-25T22:45:13.498Z,99599.13
2023-03-25T22:48:00.473Z,99598.19
2023-03-25T22:50:47.260Z,99597.97
2023-03-25T22:53:34.148Z,99597.72
2023-03-25T22:56:23.580Z,99584.81
2023-03-25T22:59:12.243Z,99588.53
2023-03-25T23:01:59.090Z,99581.53
2023-03-25T23:04:46.677Z,99588.53
2023-03-25T23:07:33.232Z,99592.25
2023-03-25T23:10:20.208Z,99587.75
2023-03-25T23:13:08.476Z,99590.94
2023-03-25T23:16:00.050Z,99599.06
2023-03-25T23:18:47.717Z,99595.28
2023-03-25T23:21:35.283Z,99597.56
2023-03-25T23:24:22.325Z,99598.03
2023-03-25T23:27:11.678Z,99559.50
2023-03-25T23:29:59.454Z,99594.13
2023-03-25T23:32:46.223Z,99585.50
2023-03-25T23:35:32.860Z,99598.56
2023-03-25T23:38:19.465Z,99587.69
2023-03-25T23:41:08.418Z,99598.34
2023-03-25T23:43:56.138Z,99593.28
2023-03-25T23:46:44.954Z,99592.03
2023-03-25T23:49:33.370Z,99594.16
2023-03-25T23:52:19.888Z,99596.94
2023-03-25T23:55:07.700Z,99612.91
2023-03-25T23:57:55.533Z,99611.44
